sensor_id;sensor_type;location;lat;lon;timestamp;P1;durP1;ratioP1;P2;durP2;ratioP2
37973;SDS011;23796;51.458;7.000;2024-01-15T00:00:26;26.90;;;18.85;;
37973;SDS011;23796;51.458;7.000;2024-01-15T00:02:52;31.13;;;19.60;;
37973;SDS011;23796;51.458;7.000;2024-01-15T00:05:18;25.98;;;18.65;;
37973;SDS011;23796;51.458;7.000;2024-01-15T00:07:45;28.35;;;16.83;;
37973;SDS011;23796;51.458;7.000;2024-01-15T00:10:11;26.48;;;17.05;;
37973;SDS011;23796;51.458;7.000;2024-01-15T00:12:36;25.17;;;16.42;;
37973;SDS011;23796;51.458;7.000;2024-01-15T00:15:02;24.73;;;16.42;;
37973;SDS011;23796;51.458;7.000;2024-01-15T00:17:28;25.73;;;17.23;;
37973;SDS011;23796;51.458;7.000;2024-01-15T00:19:54;23.42;;;16.40;;
37973;SDS011;23796;51.458;7.000;2024-01-15T00:22:19;21.90;;;14.95;;
37973;SDS011;23796;51.458;7.000;2024-01-15T00:24:45;22.05;;;14.70;;
37973;SDS011;23796;51.458;7.000;2024-01-15T00:27:13;23.35;;;15.10;;
37973;SDS011;23796;51.458;7.000;2024-01-15T00:29:38;19.33;;;13.70;;
37973;SDS011;23796;51.458;7.000;2024-01-15T00:32:06;21.30;;;15.18;;
37973;SDS011;23796;51.458;7.000;2024-01-15T00:34:32;22.60;;;15.05;;
37973;SDS011;23796;51.458;7.000;2024-01-15T00:37:00;20.08;;;14.40;;
37973;SDS011;23796;51.458;7.000;2024-01-15T00:39:25;20.15;;;14.05;;
37973;SDS011;23796;51.458;7.000;2024-01-15T00:41:51;21.35;;;14.43;;
37973;SDS011;23796;51.458;7.000;2024-01-15T00:44:19;21.20;;;15.07;;
37973;SDS011;23796;51.458;7.000;2024-01-15T00:46:47;19.48;;;14.15;;
37973;SDS011;23796;51.458;7.000;2024-01-15T00:49:13;21.80;;;13.18;;
37973;SDS011;23796;51.458;7.000;2024-01-15T00:51:39;21.20;;;13.77;;
37973;SDS011;23796;51.458;7.000;2024-01-15T00:54:05;19.58;;;12.82;;
37973;SDS011;23796;51.458;7.000;2024-01-15T00:56:30;20.00;;;14.00;;
37973;SDS011;23796;51.458;7.000;2024-01-15T00:58:56;21.15;;;14.73;;
37973;SDS011;23796;51.458;7.000;2024-01-15T01:01:22;21.27;;;13.23;;
37973;SDS011;23796;51.458;7.000;2024-01-15T01:03:50;20.35;;;13.43;;
37973;SDS011;23796;51.458;7.000;2024-01-15T01:06:15;21.30;;;13.90;;
37973;SDS011;23796;51.458;7.000;2024-01-15T01:08:41;18.55;;;12.98;;
37973;SDS011;23796;51.458;7.000;2024-01-15T01:11:07;19.65;;;13.55;;
37973;SDS011;23796;51.458;7.000;2024-01-15T01:13:32;18.67;;;13.18;;
37973;SDS011;23796;51.458;7.000;2024-01-15T01:15:58;20.10;;;12.35;;
37973;SDS011;23796;51.458;7.000;2024-01-15T01:18:26;16.98;;;12.10;;
37973;SDS011;23796;51.458;7.000;2024-01-15T01:20:51;18.67;;;12.15;;
37973;SDS011;23796;51.458;7.000;2024-01-15T01:23:17;19.00;;;13.02;;
37973;SDS011;23796;51.458;7.000;2024-01-15T01:25:43;18.05;;;13.00;;
37973;SDS011;23796;51.458;7.000;2024-01-15T01:28:08;21.58;;;14.60;;
37973;SDS011;23796;51.458;7.000;2024-01-15T01:30:34;17.50;;;11.55;;
37973;SDS011;23796;51.458;7.000;2024-01-15T01:33:02;17.88;;;12.50;;
37973;SDS011;23796;51.458;7.000;2024-01-15T01:35:27;19.63;;;12.50;;
37973;SDS011;23796;51.458;7.000;2024-01-15T01:37:53;16.95;;;13.07;;
37973;SDS011;23796;51.458;7.000;2024-01-15T01:40:18;20.80;;;13.00;;
37973;SDS011;23796;51.458;7.000;2024-01-15T01:42:44;18.90;;;12.77;;
37973;SDS011;23796;51.458;7.000;2024-01-15T01:45:13;18.67;;;12.18;;
37973;SDS011;23796;51.458;7.000;2024-01-15T01:47:38;17.73;;;12.65;;
37973;SDS011;23796;51.458;7.000;2024-01-15T01:50:06;17.17;;;12.52;;
37973;SDS011;23796;51.458;7.000;2024-01-15T01:52:34;16.48;;;11.65;;
37973;SDS011;23796;51.458;7.000;2024-01-15T01:55:01;17.73;;;12.13;;
37973;SDS011;23796;51.458;7.000;2024-01-15T01:57:28;16.77;;;12.50;;
37973;SDS011;23796;51.458;7.000;2024-01-15T01:59:55;16.30;;;11.88;;
37973;SDS011;23796;51.458;7.000;2024-01-15T02:02:22;17.80;;;11.88;;
37973;SDS011;23796;51.458;7.000;2024-01-15T02:04:49;21.45;;;13.10;;
37973;SDS011;23796;51.458;7.000;2024-01-15T02:07:15;17.63;;;12.48;;
37973;SDS011;23796;51.458;7.000;2024-01-15T02:09:42;18.85;;;12.45;;
37973;SDS011;23796;51.458;7.000;2024-01-15T02:12:09;18.00;;;12.18;;
37973;SDS011;23796;51.458;7.000;2024-01-15T02:14:35;18.45;;;12.75;;
37973;SDS011;23796;51.458;7.000;2024-01-15T02:17:00;17.15;;;10.80;;
37973;SDS011;23796;51.458;7.000;2024-01-15T02:19:26;17.60;;;11.40;;
37973;SDS011;23796;51.458;7.000;2024-01-15T02:21:51;17.20;;;12.23;;
37973;SDS011;23796;51.458;7.000;2024-01-15T02:24:19;17.38;;;12.60;;
37973;SDS011;23796;51.458;7.000;2024-01-15T02:26:47;17.67;;;12.25;;
37973;SDS011;23796;51.458;7.000;2024-01-15T02:29:13;17.27;;;10.70;;
37973;SDS011;23796;51.458;7.000;2024-01-15T02:31:40;20.25;;;11.27;;
37973;SDS011;23796;51.458;7.000;2024-01-15T02:34:05;17.83;;;10.57;;
37973;SDS011;23796;51.458;7.000;2024-01-15T02:36:31;15.70;;;10.68;;
37973;SDS011;23796;51.458;7.000;2024-01-15T02:38:57;17.58;;;10.90;;
37973;SDS011;23796;51.458;7.000;2024-01-15T02:41:22;16.73;;;10.23;;
37973;SDS011;23796;51.458;7.000;2024-01-15T02:43:48;14.90;;;9.43;;
37973;SDS011;23796;51.458;7.000;2024-01-15T02:46:14;17.13;;;10.02;;
37973;SDS011;23796;51.458;7.000;2024-01-15T02:48:42;14.93;;;9.50;;
37973;SDS011;23796;51.458;7.000;2024-01-15T02:51:07;16.15;;;9.48;;
37973;SDS011;23796;51.458;7.000;2024-01-15T02:53:33;14.88;;;9.40;;
37973;SDS011;23796;51.458;7.000;2024-01-15T02:56:00;14.55;;;8.95;;
37973;SDS011;23796;51.458;7.000;2024-01-15T02:58:26;15.38;;;9.77;;
37973;SDS011;23796;51.458;7.000;2024-01-15T03:00:54;15.27;;;9.77;;
37973;SDS011;23796;51.458;7.000;2024-01-15T03:03:22;15.82;;;9.23;;
37973;SDS011;23796;51.458;7.000;2024-01-15T03:05:50;13.73;;;8.57;;
37973;SDS011;23796;51.458;7.000;2024-01-15T03:08:15;17.17;;;9.98;;
37973;SDS011;23796;51.458;7.000;2024-01-15T03:10:42;15.25;;;8.82;;
37973;SDS011;23796;51.458;7.000;2024-01-15T03:13:08;17.60;;;9.88;;
37973;SDS011;23796;51.458;7.000;2024-01-15T03:15:36;12.63;;;8.20;;
37973;SDS011;23796;51.458;7.000;2024-01-15T03:18:01;13.18;;;7.25;;
37973;SDS011;23796;51.458;7.000;2024-01-15T03:20:30;12.93;;;8.20;;
37973;SDS011;23796;51.458;7.000;2024-01-15T03:22:55;16.48;;;8.55;;
37973;SDS011;23796;51.458;7.000;2024-01-15T03:25:23;13.00;;;7.57;;
37973;SDS011;23796;51.458;7.000;2024-01-15T03:27:49;12.57;;;7.90;;
37973;SDS011;23796;51.458;7.000;2024-01-15T03:30:15;14.73;;;7.78;;
37973;SDS011;23796;51.458;7.000;2024-01-15T03:32:40;11.25;;;7.32;;
37973;SDS011;23796;51.458;7.000;2024-01-15T03:35:06;11.70;;;7.00;;
37973;SDS011;23796;51.458;7.000;2024-01-15T03:37:32;14.63;;;7.22;;
37973;SDS011;23796;51.458;7.000;2024-01-15T03:39:57;12.90;;;7.53;;
37973;SDS011;23796;51.458;7.000;2024-01-15T03:42:23;11.98;;;6.63;;
37973;SDS011;23796;51.458;7.000;2024-01-15T03:44:48;12.32;;;6.63;;
37973;SDS011;23796;51.458;7.000;2024-01-15T03:47:14;13.02;;;6.82;;
37973;SDS011;23796;51.458;7.000;2024-01-15T03:49:41;10.93;;;5.88;;
37973;SDS011;23796;51.458;7.000;2024-01-15T03:52:07;11.98;;;6.40;;
37973;SDS011;23796;51.458;7.000;2024-01-15T03:54:33;12.02;;;6.72;;
37973;SDS011;23796;51.458;7.000;2024-01-15T03:56:58;11.00;;;6.32;;
37973;SDS011;23796;51.458;7.000;2024-01-15T03:59:24;12.38;;;6.03;;
37973;SDS011;23796;51.458;7.000;2024-01-15T04:01:49;11.88;;;6.45;;
37973;SDS011;23796;51.458;7.000;2024-01-15T04:04:18;9.77;;;5.72;;
37973;SDS011;23796;51.458;7.000;2024-01-15T04:06:44;10.70;;;6.40;;
37973;SDS011;23796;51.458;7.000;2024-01-15T04:09:12;10.35;;;6.30;;
37973;SDS011;23796;51.458;7.000;2024-01-15T04:11:38;15.15;;;6.70;;
37973;SDS011;23796;51.458;7.000;2024-01-15T04:14:07;13.52;;;8.27;;
37973;SDS011;23796;51.458;7.000;2024-01-15T04:16:35;13.98;;;8.50;;
37973;SDS011;23796;51.458;7.000;2024-01-15T04:19:02;16.15;;;8.50;;
37973;SDS011;23796;51.458;7.000;2024-01-15T04:21:29;12.75;;;7.85;;
37973;SDS011;23796;51.458;7.000;2024-01-15T04:23:55;15.75;;;8.65;;
37973;SDS011;23796;51.458;7.000;2024-01-15T04:26:21;14.68;;;8.48;;
37973;SDS011;23796;51.458;7.000;2024-01-15T04:28:49;13.77;;;8.52;;
37973;SDS011;23796;51.458;7.000;2024-01-15T04:31:24;12.88;;;8.95;;
37973;SDS011;23796;51.458;7.000;2024-01-15T04:33:50;12.25;;;8.18;;
37973;SDS011;23796;51.458;7.000;2024-01-15T04:36:15;12.93;;;8.23;;
37973;SDS011;23796;51.458;7.000;2024-01-15T04:38:43;12.65;;;8.00;;
37973;SDS011;23796;51.458;7.000;2024-01-15T04:41:14;14.25;;;8.02;;
37973;SDS011;23796;51.458;7.000;2024-01-15T04:43:41;12.38;;;7.80;;
37973;SDS011;23796;51.458;7.000;2024-01-15T04:46:07;10.40;;;7.72;;
37973;SDS011;23796;51.458;7.000;2024-01-15T04:48:33;13.63;;;8.80;;
37973;SDS011;23796;51.458;7.000;2024-01-15T04:50:58;10.75;;;7.82;;
37973;SDS011;23796;51.458;7.000;2024-01-15T04:53:24;12.85;;;7.80;;
37973;SDS011;23796;51.458;7.000;2024-01-15T04:55:50;12.70;;;7.85;;
37973;SDS011;23796;51.458;7.000;2024-01-15T04:58:18;10.65;;;7.53;;
37973;SDS011;23796;51.458;7.000;2024-01-15T05:00:49;9.75;;;6.60;;
37973;SDS011;23796;51.458;7.000;2024-01-15T05:03:15;9.95;;;7.00;;
37973;SDS011;23796;51.458;7.000;2024-01-15T05:05:41;11.55;;;7.97;;
37973;SDS011;23796;51.458;7.000;2024-01-15T05:08:06;11.60;;;7.35;;
37973;SDS011;23796;51.458;7.000;2024-01-15T05:10:32;11.13;;;7.32;;
37973;SDS011;23796;51.458;7.000;2024-01-15T05:12:57;13.45;;;6.78;;
37973;SDS011;23796;51.458;7.000;2024-01-15T05:15:23;9.93;;;6.22;;
37973;SDS011;23796;51.458;7.000;2024-01-15T05:17:48;9.95;;;6.85;;
37973;SDS011;23796;51.458;7.000;2024-01-15T05:20:14;11.05;;;7.22;;
37973;SDS011;23796;51.458;7.000;2024-01-15T05:22:42;11.15;;;7.28;;
37973;SDS011;23796;51.458;7.000;2024-01-15T05:25:07;11.95;;;6.95;;
37973;SDS011;23796;51.458;7.000;2024-01-15T05:27:35;10.60;;;7.10;;
37973;SDS011;23796;51.458;7.000;2024-01-15T05:30:00;9.18;;;6.55;;
37973;SDS011;23796;51.458;7.000;2024-01-15T05:32:26;9.80;;;6.25;;
37973;SDS011;23796;51.458;7.000;2024-01-15T05:34:54;10.80;;;6.13;;
37973;SDS011;23796;51.458;7.000;2024-01-15T05:37:20;10.50;;;6.82;;
37973;SDS011;23796;51.458;7.000;2024-01-15T05:39:45;10.13;;;6.28;;
37973;SDS011;23796;51.458;7.000;2024-01-15T05:42:13;10.82;;;6.63;;
37973;SDS011;23796;51.458;7.000;2024-01-15T05:44:39;11.25;;;6.53;;
37973;SDS011;23796;51.458;7.000;2024-01-15T05:47:04;12.13;;;6.85;;
37973;SDS011;23796;51.458;7.000;2024-01-15T05:49:30;10.48;;;6.55;;
37973;SDS011;23796;51.458;7.000;2024-01-15T05:51:55;8.85;;;6.40;;
37973;SDS011;23796;51.458;7.000;2024-01-15T05:54:23;11.85;;;6.47;;
37973;SDS011;23796;51.458;7.000;2024-01-15T05:56:49;8.77;;;6.35;;
37973;SDS011;23796;51.458;7.000;2024-01-15T05:59:15;11.35;;;6.03;;
37973;SDS011;23796;51.458;7.000;2024-01-15T06:01:42;15.25;;;6.60;;
37973;SDS011;23796;51.458;7.000;2024-01-15T06:04:08;9.25;;;5.93;;
37973;SDS011;23796;51.458;7.000;2024-01-15T06:06:34;11.95;;;5.95;;
37973;SDS011;23796;51.458;7.000;2024-01-15T06:08:59;10.52;;;5.22;;
37973;SDS011;23796;51.458;7.000;2024-01-15T06:11:30;11.45;;;6.35;;
37973;SDS011;23796;51.458;7.000;2024-01-15T06:13:58;10.85;;;6.03;;
37973;SDS011;23796;51.458;7.000;2024-01-15T06:16:25;10.55;;;5.90;;
37973;SDS011;23796;51.458;7.000;2024-01-15T06:18:54;12.73;;;6.40;;
37973;SDS011;23796;51.458;7.000;2024-01-15T06:21:19;10.35;;;5.75;;
37973;SDS011;23796;51.458;7.000;2024-01-15T06:23:50;10.10;;;6.13;;
37973;SDS011;23796;51.458;7.000;2024-01-15T06:26:18;12.57;;;5.95;;
37973;SDS011;23796;51.458;7.000;2024-01-15T06:28:44;10.68;;;6.68;;
37973;SDS011;23796;51.458;7.000;2024-01-15T06:31:10;10.18;;;4.93;;
37973;SDS011;23796;51.458;7.000;2024-01-15T06:33:35;10.32;;;5.32;;
37973;SDS011;23796;51.458;7.000;2024-01-15T06:36:01;9.07;;;5.05;;
37973;SDS011;23796;51.458;7.000;2024-01-15T06:38:27;9.38;;;4.82;;
37973;SDS011;23796;51.458;7.000;2024-01-15T06:40:52;10.32;;;4.85;;
37973;SDS011;23796;51.458;7.000;2024-01-15T06:43:18;10.73;;;4.47;;
37973;SDS011;23796;51.458;7.000;2024-01-15T06:45:46;8.98;;;4.38;;
37973;SDS011;23796;51.458;7.000;2024-01-15T06:48:11;9.68;;;5.65;;
37973;SDS011;23796;51.458;7.000;2024-01-15T06:50:39;7.45;;;4.57;;
37973;SDS011;23796;51.458;7.000;2024-01-15T06:53:05;7.97;;;4.15;;
37973;SDS011;23796;51.458;7.000;2024-01-15T06:55:31;7.13;;;3.70;;
37973;SDS011;23796;51.458;7.000;2024-01-15T06:57:56;6.82;;;3.47;;
37973;SDS011;23796;51.458;7.000;2024-01-15T07:00:22;9.77;;;3.95;;
37973;SDS011;23796;51.458;7.000;2024-01-15T07:02:47;8.00;;;3.42;;
37973;SDS011;23796;51.458;7.000;2024-01-15T07:05:13;7.97;;;3.28;;
37973;SDS011;23796;51.458;7.000;2024-01-15T07:07:39;7.05;;;3.42;;
37973;SDS011;23796;51.458;7.000;2024-01-15T07:10:05;7.30;;;2.53;;
37973;SDS011;23796;51.458;7.000;2024-01-15T07:12:31;6.50;;;3.00;;
37973;SDS011;23796;51.458;7.000;2024-01-15T07:14:57;6.70;;;3.05;;
37973;SDS011;23796;51.458;7.000;2024-01-15T07:17:25;5.53;;;2.67;;
37973;SDS011;23796;51.458;7.000;2024-01-15T07:19:53;5.43;;;2.53;;
37973;SDS011;23796;51.458;7.000;2024-01-15T07:22:19;6.57;;;3.35;;
37973;SDS011;23796;51.458;7.000;2024-01-15T07:24:44;8.43;;;2.78;;
37973;SDS011;23796;51.458;7.000;2024-01-15T07:27:10;4.40;;;2.10;;
37973;SDS011;23796;51.458;7.000;2024-01-15T07:29:36;5.43;;;2.30;;
37973;SDS011;23796;51.458;7.000;2024-01-15T07:32:02;5.72;;;2.05;;
37973;SDS011;23796;51.458;7.000;2024-01-15T07:34:29;5.20;;;2.05;;
37973;SDS011;23796;51.458;7.000;2024-01-15T07:36:54;4.68;;;2.00;;
37973;SDS011;23796;51.458;7.000;2024-01-15T07:39:20;4.55;;;2.30;;
37973;SDS011;23796;51.458;7.000;2024-01-15T07:41:51;3.92;;;2.58;;
37973;SDS011;23796;51.458;7.000;2024-01-15T07:44:19;5.00;;;2.03;;
37973;SDS011;23796;51.458;7.000;2024-01-15T07:46:46;5.20;;;2.42;;
37973;SDS011;23796;51.458;7.000;2024-01-15T07:49:14;4.78;;;2.30;;
37973;SDS011;23796;51.458;7.000;2024-01-15T07:51:42;5.72;;;2.70;;
37973;SDS011;23796;51.458;7.000;2024-01-15T07:54:09;5.90;;;3.22;;
37973;SDS011;23796;51.458;7.000;2024-01-15T07:56:52;5.28;;;2.97;;
37973;SDS011;23796;51.458;7.000;2024-01-15T07:59:22;5.85;;;3.78;;
37973;SDS011;23796;51.458;7.000;2024-01-15T08:01:50;12.50;;;5.28;;
37973;SDS011;23796;51.458;7.000;2024-01-15T08:04:19;6.72;;;4.45;;
37973;SDS011;23796;51.458;7.000;2024-01-15T08:06:45;8.48;;;5.60;;
37973;SDS011;23796;51.458;7.000;2024-01-15T08:09:11;10.13;;;5.97;;
37973;SDS011;23796;51.458;7.000;2024-01-15T08:11:40;10.20;;;6.45;;
37973;SDS011;23796;51.458;7.000;2024-01-15T08:14:09;10.35;;;6.28;;
37973;SDS011;23796;51.458;7.000;2024-01-15T08:16:36;8.57;;;6.20;;
37973;SDS011;23796;51.458;7.000;2024-01-15T08:19:02;8.65;;;6.38;;
37973;SDS011;23796;51.458;7.000;2024-01-15T08:21:28;9.57;;;6.13;;
37973;SDS011;23796;51.458;7.000;2024-01-15T08:23:56;9.73;;;6.72;;
37973;SDS011;23796;51.458;7.000;2024-01-15T08:26:22;8.90;;;5.95;;
37973;SDS011;23796;51.458;7.000;2024-01-15T08:28:47;8.60;;;5.97;;
37973;SDS011;23796;51.458;7.000;2024-01-15T08:31:16;8.73;;;6.10;;
37973;SDS011;23796;51.458;7.000;2024-01-15T08:33:42;8.32;;;6.07;;
37973;SDS011;23796;51.458;7.000;2024-01-15T08:36:07;11.52;;;8.55;;
37973;SDS011;23796;51.458;7.000;2024-01-15T08:38:34;8.27;;;6.65;;
37973;SDS011;23796;51.458;7.000;2024-01-15T08:41:00;9.40;;;6.60;;
37973;SDS011;23796;51.458;7.000;2024-01-15T08:43:28;8.70;;;6.57;;
37973;SDS011;23796;51.458;7.000;2024-01-15T08:45:54;7.78;;;6.65;;
37973;SDS011;23796;51.458;7.000;2024-01-15T08:48:20;9.00;;;6.53;;
37973;SDS011;23796;51.458;7.000;2024-01-15T08:50:46;9.07;;;6.90;;
37973;SDS011;23796;51.458;7.000;2024-01-15T08:53:14;8.30;;;6.82;;
37973;SDS011;23796;51.458;7.000;2024-01-15T08:55:39;9.02;;;7.15;;
37973;SDS011;23796;51.458;7.000;2024-01-15T08:58:07;9.85;;;6.95;;
37973;SDS011;23796;51.458;7.000;2024-01-15T09:00:33;11.07;;;7.20;;
37973;SDS011;23796;51.458;7.000;2024-01-15T09:02:59;9.52;;;7.00;;
37973;SDS011;23796;51.458;7.000;2024-01-15T09:05:25;8.40;;;7.43;;
37973;SDS011;23796;51.458;7.000;2024-01-15T09:07:50;9.40;;;7.78;;
37973;SDS011;23796;51.458;7.000;2024-01-15T09:10:19;9.45;;;7.47;;
37973;SDS011;23796;51.458;7.000;2024-01-15T09:12:45;8.07;;;6.97;;
37973;SDS011;23796;51.458;7.000;2024-01-15T09:15:11;8.52;;;7.00;;
37973;SDS011;23796;51.458;7.000;2024-01-15T09:17:37;10.23;;;6.80;;
37973;SDS011;23796;51.458;7.000;2024-01-15T09:20:03;8.98;;;7.60;;
37973;SDS011;23796;51.458;7.000;2024-01-15T09:22:31;8.85;;;7.63;;
37973;SDS011;23796;51.458;7.000;2024-01-15T09:25:00;9.60;;;7.35;;
37973;SDS011;23796;51.458;7.000;2024-01-15T09:27:25;10.35;;;8.65;;
37973;SDS011;23796;51.458;7.000;2024-01-15T09:29:52;8.50;;;7.45;;
37973;SDS011;23796;51.458;7.000;2024-01-15T09:32:17;8.13;;;6.15;;
37973;SDS011;23796;51.458;7.000;2024-01-15T09:34:43;7.25;;;6.10;;
37973;SDS011;23796;51.458;7.000;2024-01-15T09:37:11;8.10;;;5.93;;
37973;SDS011;23796;51.458;7.000;2024-01-15T09:39:37;7.35;;;5.80;;
37973;SDS011;23796;51.458;7.000;2024-01-15T09:42:03;6.70;;;5.50;;
37973;SDS011;23796;51.458;7.000;2024-01-15T09:44:29;9.13;;;5.97;;
37973;SDS011;23796;51.458;7.000;2024-01-15T09:46:57;8.20;;;6.05;;
37973;SDS011;23796;51.458;7.000;2024-01-15T09:49:22;7.75;;;5.22;;
37973;SDS011;23796;51.458;7.000;2024-01-15T09:51:50;7.38;;;4.85;;
37973;SDS011;23796;51.458;7.000;2024-01-15T09:54:16;6.45;;;5.35;;
37973;SDS011;23796;51.458;7.000;2024-01-15T09:56:45;7.13;;;5.53;;
37973;SDS011;23796;51.458;7.000;2024-01-15T09:59:18;6.75;;;5.53;;
37973;SDS011;23796;51.458;7.000;2024-01-15T10:01:45;6.35;;;4.90;;
37973;SDS011;23796;51.458;7.000;2024-01-15T10:04:12;7.18;;;6.00;;
37973;SDS011;23796;51.458;7.000;2024-01-15T10:06:39;7.53;;;5.38;;
37973;SDS011;23796;51.458;7.000;2024-01-15T10:09:12;8.50;;;6.30;;
37973;SDS011;23796;51.458;7.000;2024-01-15T10:11:44;6.18;;;5.25;;
37973;SDS011;23796;51.458;7.000;2024-01-15T10:14:10;8.43;;;5.82;;
37973;SDS011;23796;51.458;7.000;2024-01-15T10:16:40;7.15;;;5.57;;
37973;SDS011;23796;51.458;7.000;2024-01-15T10:19:07;7.00;;;5.13;;
37973;SDS011;23796;51.458;7.000;2024-01-15T10:21:33;7.55;;;5.82;;
37973;SDS011;23796;51.458;7.000;2024-01-15T10:24:02;7.32;;;4.82;;
37973;SDS011;23796;51.458;7.000;2024-01-15T10:26:32;5.65;;;4.57;;
37973;SDS011;23796;51.458;7.000;2024-01-15T10:29:00;5.00;;;3.53;;
37973;SDS011;23796;51.458;7.000;2024-01-15T10:31:26;4.10;;;3.00;;
37973;SDS011;23796;51.458;7.000;2024-01-15T10:33:52;7.07;;;2.90;;
37973;SDS011;23796;51.458;7.000;2024-01-15T10:36:18;6.30;;;3.45;;
37973;SDS011;23796;51.458;7.000;2024-01-15T10:38:44;5.30;;;3.20;;
37973;SDS011;23796;51.458;7.000;2024-01-15T10:41:10;5.47;;;3.70;;
37973;SDS011;23796;51.458;7.000;2024-01-15T10:43:36;5.25;;;3.10;;
37973;SDS011;23796;51.458;7.000;2024-01-15T10:46:02;5.95;;;3.13;;
37973;SDS011;23796;51.458;7.000;2024-01-15T10:48:28;5.13;;;3.03;;
37973;SDS011;23796;51.458;7.000;2024-01-15T10:50:56;4.78;;;3.20;;
37973;SDS011;23796;51.458;7.000;2024-01-15T10:53:22;5.30;;;3.80;;
37973;SDS011;23796;51.458;7.000;2024-01-15T10:55:48;6.50;;;3.33;;
37973;SDS011;23796;51.458;7.000;2024-01-15T10:58:16;6.78;;;3.30;;
37973;SDS011;23796;51.458;7.000;2024-01-15T11:00:43;4.40;;;2.85;;
37973;SDS011;23796;51.458;7.000;2024-01-15T11:03:09;7.97;;;3.08;;
37973;SDS011;23796;51.458;7.000;2024-01-15T11:05:38;6.07;;;2.67;;
37973;SDS011;23796;51.458;7.000;2024-01-15T11:08:06;6.07;;;2.90;;
37973;SDS011;23796;51.458;7.000;2024-01-15T11:10:42;4.75;;;2.95;;
37973;SDS011;23796;51.458;7.000;2024-01-15T11:13:20;5.10;;;3.28;;
37973;SDS011;23796;51.458;7.000;2024-01-15T11:15:57;6.03;;;3.33;;
37973;SDS011;23796;51.458;7.000;2024-01-15T11:18:30;5.50;;;2.63;;
37973;SDS011;23796;51.458;7.000;2024-01-15T11:23:57;5.65;;;2.85;;
37973;SDS011;23796;51.458;7.000;2024-01-15T11:29:02;5.10;;;2.40;;
37973;SDS011;23796;51.458;7.000;2024-01-15T11:34:05;5.53;;;2.60;;
37973;SDS011;23796;51.458;7.000;2024-01-15T11:41:56;5.63;;;2.33;;
37973;SDS011;23796;51.458;7.000;2024-01-15T11:44:28;4.20;;;2.30;;
37973;SDS011;23796;51.458;7.000;2024-01-15T11:46:57;5.35;;;2.40;;
37973;SDS011;23796;51.458;7.000;2024-01-15T11:52:04;9.27;;;2.55;;
37973;SDS011;23796;51.458;7.000;2024-01-15T11:54:32;5.53;;;3.00;;
37973;SDS011;23796;51.458;7.000;2024-01-15T11:57:02;7.78;;;3.45;;
37973;SDS011;23796;51.458;7.000;2024-01-15T11:59:31;6.78;;;3.28;;
37973;SDS011;23796;51.458;7.000;2024-01-15T12:01:56;5.95;;;3.00;;
37973;SDS011;23796;51.458;7.000;2024-01-15T12:04:22;6.55;;;2.17;;
37973;SDS011;23796;51.458;7.000;2024-01-15T12:06:49;5.65;;;2.53;;
37973;SDS011;23796;51.458;7.000;2024-01-15T12:09:18;5.43;;;2.75;;
37973;SDS011;23796;51.458;7.000;2024-01-15T12:11:46;5.60;;;2.38;;
37973;SDS011;23796;51.458;7.000;2024-01-15T12:14:16;5.88;;;2.47;;
37973;SDS011;23796;51.458;7.000;2024-01-15T12:16:42;5.00;;;2.10;;
37973;SDS011;23796;51.458;7.000;2024-01-15T12:19:08;7.65;;;2.25;;
37973;SDS011;23796;51.458;7.000;2024-01-15T12:21:34;5.88;;;1.80;;
37973;SDS011;23796;51.458;7.000;2024-01-15T12:23:59;7.57;;;2.00;;
37973;SDS011;23796;51.458;7.000;2024-01-15T12:26:25;5.85;;;1.80;;
37973;SDS011;23796;51.458;7.000;2024-01-15T12:28:53;4.40;;;1.60;;
37973;SDS011;23796;51.458;7.000;2024-01-15T12:31:19;5.90;;;2.67;;
37973;SDS011;23796;51.458;7.000;2024-01-15T12:33:45;5.80;;;1.98;;
37973;SDS011;23796;51.458;7.000;2024-01-15T12:36:12;4.05;;;1.70;;
37973;SDS011;23796;51.458;7.000;2024-01-15T12:38:38;9.45;;;3.47;;
37973;SDS011;23796;51.458;7.000;2024-01-15T12:41:04;9.57;;;2.65;;
37973;SDS011;23796;51.458;7.000;2024-01-15T12:43:29;6.88;;;2.05;;
37973;SDS011;23796;51.458;7.000;2024-01-15T12:45:55;9.07;;;2.13;;
37973;SDS011;23796;51.458;7.000;2024-01-15T12:48:22;4.10;;;1.17;;
37973;SDS011;23796;51.458;7.000;2024-01-15T12:50:47;6.75;;;1.50;;
37973;SDS011;23796;51.458;7.000;2024-01-15T12:53:13;9.15;;;2.13;;
37973;SDS011;23796;51.458;7.000;2024-01-15T12:55:41;6.35;;;1.58;;
37973;SDS011;23796;51.458;7.000;2024-01-15T12:58:07;6.32;;;1.88;;
37973;SDS011;23796;51.458;7.000;2024-01-15T13:00:32;3.80;;;1.58;;
37973;SDS011;23796;51.458;7.000;2024-01-15T13:02:58;4.22;;;1.35;;
37973;SDS011;23796;51.458;7.000;2024-01-15T13:05:25;6.25;;;1.60;;
37973;SDS011;23796;51.458;7.000;2024-01-15T13:07:52;3.78;;;1.63;;
37973;SDS011;23796;51.458;7.000;2024-01-15T13:10:20;7.07;;;2.10;;
37973;SDS011;23796;51.458;7.000;2024-01-15T13:12:46;6.00;;;1.95;;
37973;SDS011;23796;51.458;7.000;2024-01-15T13:15:11;5.75;;;1.77;;
37973;SDS011;23796;51.458;7.000;2024-01-15T13:17:38;6.75;;;2.00;;
37973;SDS011;23796;51.458;7.000;2024-01-15T13:20:05;5.03;;;2.13;;
37973;SDS011;23796;51.458;7.000;2024-01-15T13:22:31;4.28;;;1.70;;
37973;SDS011;23796;51.458;7.000;2024-01-15T13:24:57;6.10;;;2.05;;
37973;SDS011;23796;51.458;7.000;2024-01-15T13:27:23;6.85;;;2.20;;
37973;SDS011;23796;51.458;7.000;2024-01-15T13:29:49;6.53;;;1.75;;
37973;SDS011;23796;51.458;7.000;2024-01-15T13:32:17;4.97;;;2.05;;
37973;SDS011;23796;51.458;7.000;2024-01-15T13:34:50;7.10;;;2.17;;
37973;SDS011;23796;51.458;7.000;2024-01-15T13:37:16;4.80;;;2.20;;
37973;SDS011;23796;51.458;7.000;2024-01-15T13:39:42;5.93;;;2.10;;
37973;SDS011;23796;51.458;7.000;2024-01-15T13:42:08;7.45;;;2.85;;
37973;SDS011;23796;51.458;7.000;2024-01-15T13:44:36;9.60;;;2.65;;
37973;SDS011;23796;51.458;7.000;2024-01-15T13:47:02;9.02;;;2.88;;
37973;SDS011;23796;51.458;7.000;2024-01-15T13:49:30;6.63;;;3.17;;
37973;SDS011;23796;51.458;7.000;2024-01-15T13:51:55;7.53;;;2.80;;
37973;SDS011;23796;51.458;7.000;2024-01-15T13:54:22;5.53;;;2.30;;
37973;SDS011;23796;51.458;7.000;2024-01-15T13:56:47;6.95;;;2.10;;
37973;SDS011;23796;51.458;7.000;2024-01-15T13:59:13;7.10;;;3.28;;
37973;SDS011;23796;51.458;7.000;2024-01-15T14:01:42;5.18;;;2.10;;
37973;SDS011;23796;51.458;7.000;2024-01-15T14:04:07;4.80;;;2.20;;
37973;SDS011;23796;51.458;7.000;2024-01-15T14:06:33;4.15;;;2.22;;
37973;SDS011;23796;51.458;7.000;2024-01-15T14:08:58;5.25;;;2.35;;
37973;SDS011;23796;51.458;7.000;2024-01-15T14:11:24;4.68;;;2.30;;
37973;SDS011;23796;51.458;7.000;2024-01-15T14:13:50;4.18;;;1.80;;
37973;SDS011;23796;51.458;7.000;2024-01-15T14:16:18;8.43;;;2.55;;
37973;SDS011;23796;51.458;7.000;2024-01-15T14:18:43;7.25;;;1.90;;
37973;SDS011;23796;51.458;7.000;2024-01-15T14:21:09;5.68;;;2.30;;
37973;SDS011;23796;51.458;7.000;2024-01-15T14:23:35;5.95;;;2.00;;
37973;SDS011;23796;51.458;7.000;2024-01-15T14:26:03;4.38;;;1.98;;
37973;SDS011;23796;51.458;7.000;2024-01-15T14:28:29;7.32;;;2.30;;
37973;SDS011;23796;51.458;7.000;2024-01-15T14:30:55;4.93;;;2.25;;
37973;SDS011;23796;51.458;7.000;2024-01-15T14:33:23;8.27;;;3.05;;
37973;SDS011;23796;51.458;7.000;2024-01-15T14:35:48;6.80;;;2.70;;
37973;SDS011;23796;51.458;7.000;2024-01-15T14:38:14;5.68;;;2.50;;
37973;SDS011;23796;51.458;7.000;2024-01-15T14:40:40;7.07;;;2.60;;
37973;SDS011;23796;51.458;7.000;2024-01-15T14:43:05;4.70;;;2.30;;
37973;SDS011;23796;51.458;7.000;2024-01-15T14:45:33;5.55;;;1.95;;
37973;SDS011;23796;51.458;7.000;2024-01-15T14:48:00;4.25;;;2.08;;
37973;SDS011;23796;51.458;7.000;2024-01-15T14:50:26;6.55;;;2.05;;